sensor_id;sensor_type;location;lat;lon;timestamp;temperature;humidity
47845;DHT22;33605;48.822;8.796;2022-12-05T00:00:31;6.70;60.70
47845;DHT22;33605;48.822;8.796;2022-12-05T00:02:57;6.80;60.70
47845;DHT22;33605;48.822;8.796;2022-12-05T00:05:23;6.80;60.70
47845;DHT22;33605;48.822;8.796;2022-12-05T00:07:48;6.80;60.70
47845;DHT22;33605;48.822;8.796;2022-12-05T00:10:14;6.80;60.60
47845;DHT22;33605;48.822;8.796;2022-12-05T00:12:40;6.80;60.60
47845;DHT22;33605;48.822;8.796;2022-12-05T00:15:06;6.80;60.50
47845;DHT22;33605;48.822;8.796;2022-12-05T00:17:37;6.90;60.50
47845;DHT22;33605;48.822;8.796;2022-12-05T00:20:04;6.90;60.50
47845;DHT22;33605;48.822;8.796;2022-12-05T00:22:30;6.90;60.40
47845;DHT22;33605;48.822;8.796;2022-12-05T00:24:55;7.00;60.40
47845;DHT22;33605;48.822;8.796;2022-12-05T00:27:21;7.00;60.40
47845;DHT22;33605;48.822;8.796;2022-12-05T00:29:46;7.00;60.30
47845;DHT22;33605;48.822;8.796;2022-12-05T00:32:12;7.00;60.20
47845;DHT22;33605;48.822;8.796;2022-12-05T00:34:37;7.00;60.20
47845;DHT22;33605;48.822;8.796;2022-12-05T00:37:03;7.00;60.20
47845;DHT22;33605;48.822;8.796;2022-12-05T00:39:29;7.00;60.20
47845;DHT22;33605;48.822;8.796;2022-12-05T00:41:54;7.00;60.10
47845;DHT22;33605;48.822;8.796;2022-12-05T00:44:20;7.00;60.00
47845;DHT22;33605;48.822;8.796;2022-12-05T00:46:46;7.00;60.00
47845;DHT22;33605;48.822;8.796;2022-12-05T00:49:11;7.10;60.10
47845;DHT22;33605;48.822;8.796;2022-12-05T00:51:39;7.00;60.10
47845;DHT22;33605;48.822;8.796;2022-12-05T00:54:10;7.00;60.10
47845;DHT22;33605;48.822;8.796;2022-12-05T00:56:36;7.10;60.10
47845;DHT22;33605;48.822;8.796;2022-12-05T00:59:02;7.00;60.00
47845;DHT22;33605;48.822;8.796;2022-12-05T01:01:31;7.00;59.90
47845;DHT22;33605;48.822;8.796;2022-12-05T01:03:59;7.00;60.00
47845;DHT22;33605;48.822;8.796;2022-12-05T01:06:26;7.00;60.00
47845;DHT22;33605;48.822;8.796;2022-12-05T01:08:53;7.00;60.00
47845;DHT22;33605;48.822;8.796;2022-12-05T01:11:20;7.00;60.00
47845;DHT22;33605;48.822;8.796;2022-12-05T01:13:46;7.00;60.00
47845;DHT22;33605;48.822;8.796;2022-12-05T01:16:27;7.00;60.00
47845;DHT22;33605;48.822;8.796;2022-12-05T01:18:54;7.00;60.00
47845;DHT22;33605;48.822;8.796;2022-12-05T01:21:20;7.00;60.10
47845;DHT22;33605;48.822;8.796;2022-12-05T01:23:46;7.00;60.10
47845;DHT22;33605;48.822;8.796;2022-12-05T01:26:13;7.00;60.10
47845;DHT22;33605;48.822;8.796;2022-12-05T01:28:39;7.00;60.10
47845;DHT22;33605;48.822;8.796;2022-12-05T01:31:08;7.10;60.20
47845;DHT22;33605;48.822;8.796;2022-12-05T01:33:35;7.10;60.20
47845;DHT22;33605;48.822;8.796;2022-12-05T01:36:02;7.10;60.20
47845;DHT22;33605;48.822;8.796;2022-12-05T01:38:28;7.10;60.20
47845;DHT22;33605;48.822;8.796;2022-12-05T01:41:04;7.10;60.20
47845;DHT22;33605;48.822;8.796;2022-12-05T01:43:31;7.10;60.20
47845;DHT22;33605;48.822;8.796;2022-12-05T01:45:57;7.10;60.20
47845;DHT22;33605;48.822;8.796;2022-12-05T01:48:29;7.10;60.10
47845;DHT22;33605;48.822;8.796;2022-12-05T01:50:57;7.10;60.00
47845;DHT22;33605;48.822;8.796;2022-12-05T01:53:24;7.10;60.00
47845;DHT22;33605;48.822;8.796;2022-12-05T01:55:50;7.10;60.10
47845;DHT22;33605;48.822;8.796;2022-12-05T01:58:17;7.10;60.10
47845;DHT22;33605;48.822;8.796;2022-12-05T02:00:43;7.10;60.10
47845;DHT22;33605;48.822;8.796;2022-12-05T02:03:16;7.10;60.20
47845;DHT22;33605;48.822;8.796;2022-12-05T02:05:42;7.10;60.30
47845;DHT22;33605;48.822;8.796;2022-12-05T02:08:10;7.10;60.40
47845;DHT22;33605;48.822;8.796;2022-12-05T02:10:45;7.10;60.40
47845;DHT22;33605;48.822;8.796;2022-12-05T02:28:39;7.00;60.00
47845;DHT22;33605;48.822;8.796;2022-12-05T02:33:34;7.00;60.10
47845;DHT22;33605;48.822;8.796;2022-12-05T02:36:18;7.00;60.10
47845;DHT22;33605;48.822;8.796;2022-12-05T02:41:40;7.00;60.00
47845;DHT22;33605;48.822;8.796;2022-12-05T02:44:40;7.00;60.10
47845;DHT22;33605;48.822;8.796;2022-12-05T02:47:08;7.00;60.20
47845;DHT22;33605;48.822;8.796;2022-12-05T02:49:35;7.00;60.20
47845;DHT22;33605;48.822;8.796;2022-12-05T02:52:03;7.00;60.20
47845;DHT22;33605;48.822;8.796;2022-12-05T02:54:32;6.90;60.10
47845;DHT22;33605;48.822;8.796;2022-12-05T02:57:00;6.90;60.10
47845;DHT22;33605;48.822;8.796;2022-12-05T02:59:26;7.00;60.30
47845;DHT22;33605;48.822;8.796;2022-12-05T03:01:51;6.90;60.20
47845;DHT22;33605;48.822;8.796;2022-12-05T03:04:20;6.90;60.30
47845;DHT22;33605;48.822;8.796;2022-12-05T03:06:52;6.90;60.40
47845;DHT22;33605;48.822;8.796;2022-12-05T03:09:20;6.90;60.40
47845;DHT22;33605;48.822;8.796;2022-12-05T03:11:57;7.00;60.50
47845;DHT22;33605;48.822;8.796;2022-12-05T03:14:34;7.00;60.50
47845;DHT22;33605;48.822;8.796;2022-12-05T03:17:06;7.00;60.50
47845;DHT22;33605;48.822;8.796;2022-12-05T03:20:08;7.00;60.50
47845;DHT22;33605;48.822;8.796;2022-12-05T03:25:23;7.00;60.40
47845;DHT22;33605;48.822;8.796;2022-12-05T03:27:59;7.00;60.30
47845;DHT22;33605;48.822;8.796;2022-12-05T03:30:27;7.00;60.20
47845;DHT22;33605;48.822;8.796;2022-12-05T03:33:03;7.10;60.70
47845;DHT22;33605;48.822;8.796;2022-12-05T03:35:42;7.00;60.10
47845;DHT22;33605;48.822;8.796;2022-12-05T03:38:13;7.00;60.10
47845;DHT22;33605;48.822;8.796;2022-12-05T03:40:49;7.00;60.20
47845;DHT22;33605;48.822;8.796;2022-12-05T03:46:04;7.10;60.40
47845;DHT22;33605;48.822;8.796;2022-12-05T03:48:34;7.10;60.50
47845;DHT22;33605;48.822;8.796;2022-12-05T03:51:03;7.10;60.50
47845;DHT22;33605;48.822;8.796;2022-12-05T03:53:41;7.10;60.60
47845;DHT22;33605;48.822;8.796;2022-12-05T03:56:33;7.10;60.60
47845;DHT22;33605;48.822;8.796;2022-12-05T03:59:04;7.10;60.60
47845;DHT22;33605;48.822;8.796;2022-12-05T04:01:32;7.10;60.60
47845;DHT22;33605;48.822;8.796;2022-12-05T04:04:05;7.10;60.60
47845;DHT22;33605;48.822;8.796;2022-12-05T04:06:34;7.10;60.50
47845;DHT22;33605;48.822;8.796;2022-12-05T04:09:08;7.10;60.50
47845;DHT22;33605;48.822;8.796;2022-12-05T04:11:36;7.10;60.50
47845;DHT22;33605;48.822;8.796;2022-12-05T04:14:14;7.10;60.60
47845;DHT22;33605;48.822;8.796;2022-12-05T04:16:54;7.10;60.60
47845;DHT22;33605;48.822;8.796;2022-12-05T04:19:41;7.10;60.70
47845;DHT22;33605;48.822;8.796;2022-12-05T04:22:47;7.10;60.60
47845;DHT22;33605;48.822;8.796;2022-12-05T04:25:14;7.20;60.70
47845;DHT22;33605;48.822;8.796;2022-12-05T04:28:25;7.10;60.70
47845;DHT22;33605;48.822;8.796;2022-12-05T04:31:04;7.10;60.70
47845;DHT22;33605;48.822;8.796;2022-12-05T04:33:55;7.10;60.70
47845;DHT22;33605;48.822;8.796;2022-12-05T04:36:31;7.20;60.80
47845;DHT22;33605;48.822;8.796;2022-12-05T04:39:01;7.20;60.80
47845;DHT22;33605;48.822;8.796;2022-12-05T04:41:32;7.20;60.80
47845;DHT22;33605;48.822;8.796;2022-12-05T04:44:02;7.20;60.80
47845;DHT22;33605;48.822;8.796;2022-12-05T04:46:28;7.20;60.90
47845;DHT22;33605;48.822;8.796;2022-12-05T04:48:57;7.20;60.90
47845;DHT22;33605;48.822;8.796;2022-12-05T04:51:26;7.20;61.00
47845;DHT22;33605;48.822;8.796;2022-12-05T04:53:56;7.20;61.00
47845;DHT22;33605;48.822;8.796;2022-12-05T04:56:27;7.20;61.00
47845;DHT22;33605;48.822;8.796;2022-12-05T04:58:54;7.20;61.00
47845;DHT22;33605;48.822;8.796;2022-12-05T05:03:53;7.30;61.00
47845;DHT22;33605;48.822;8.796;2022-12-05T05:06:20;7.30;61.00
47845;DHT22;33605;48.822;8.796;2022-12-05T05:08:49;7.30;61.00
47845;DHT22;33605;48.822;8.796;2022-12-05T05:11:19;7.30;61.00
47845;DHT22;33605;48.822;8.796;2022-12-05T05:13:45;7.30;60.90
47845;DHT22;33605;48.822;8.796;2022-12-05T05:16:19;7.30;61.00
47845;DHT22;33605;48.822;8.796;2022-12-05T05:18:46;7.30;61.00
47845;DHT22;33605;48.822;8.796;2022-12-05T05:21:40;7.30;61.00
47845;DHT22;33605;48.822;8.796;2022-12-05T05:24:06;7.20;60.90
47845;DHT22;33605;48.822;8.796;2022-12-05T05:26:35;7.20;60.80
47845;DHT22;33605;48.822;8.796;2022-12-05T05:29:01;7.20;60.70
47845;DHT22;33605;48.822;8.796;2022-12-05T05:31:27;7.20;60.70
47845;DHT22;33605;48.822;8.796;2022-12-05T05:33:55;7.20;60.70
47845;DHT22;33605;48.822;8.796;2022-12-05T05:36:23;7.20;60.90
47845;DHT22;33605;48.822;8.796;2022-12-05T05:38:51;7.20;60.70
47845;DHT22;33605;48.822;8.796;2022-12-05T05:41:20;7.20;60.70
47845;DHT22;33605;48.822;8.796;2022-12-05T05:43:46;7.20;60.60
47845;DHT22;33605;48.822;8.796;2022-12-05T05:46:14;7.20;60.60
47845;DHT22;33605;48.822;8.796;2022-12-05T05:48:40;7.20;60.60
47845;DHT22;33605;48.822;8.796;2022-12-05T05:51:07;7.30;60.60
47845;DHT22;33605;48.822;8.796;2022-12-05T05:53:33;7.30;60.60
47845;DHT22;33605;48.822;8.796;2022-12-05T05:56:03;7.30;60.60
47845;DHT22;33605;48.822;8.796;2022-12-05T05:58:29;7.30;60.70
47845;DHT22;33605;48.822;8.796;2022-12-05T06:01:02;7.30;60.80
47845;DHT22;33605;48.822;8.796;2022-12-05T06:03:28;7.30;60.80
47845;DHT22;33605;48.822;8.796;2022-12-05T06:05:58;7.30;60.80
47845;DHT22;33605;48.822;8.796;2022-12-05T06:08:24;7.30;60.90
47845;DHT22;33605;48.822;8.796;2022-12-05T06:10:50;7.30;61.30
47845;DHT22;33605;48.822;8.796;2022-12-05T06:13:16;7.30;60.90
47845;DHT22;33605;48.822;8.796;2022-12-05T06:15:41;7.30;60.90
47845;DHT22;33605;48.822;8.796;2022-12-05T06:18:07;7.30;60.90
47845;DHT22;33605;48.822;8.796;2022-12-05T06:20:32;7.30;60.90
47845;DHT22;33605;48.822;8.796;2022-12-05T06:22:58;7.30;60.90
47845;DHT22;33605;48.822;8.796;2022-12-05T06:25:24;7.30;60.80
47845;DHT22;33605;48.822;8.796;2022-12-05T06:27:49;7.30;60.80
47845;DHT22;33605;48.822;8.796;2022-12-05T06:30:15;7.30;60.80
47845;DHT22;33605;48.822;8.796;2022-12-05T06:32:41;7.30;60.70
47845;DHT22;33605;48.822;8.796;2022-12-05T06:35:07;7.30;60.70
47845;DHT22;33605;48.822;8.796;2022-12-05T06:37:42;7.30;60.70
47845;DHT22;33605;48.822;8.796;2022-12-05T06:40:10;7.30;60.70
47845;DHT22;33605;48.822;8.796;2022-12-05T06:42:36;7.30;60.60
47845;DHT22;33605;48.822;8.796;2022-12-05T06:45:02;7.30;60.70
47845;DHT22;33605;48.822;8.796;2022-12-05T06:47:28;7.30;60.70
47845;DHT22;33605;48.822;8.796;2022-12-05T06:49:54;7.30;60.80
47845;DHT22;33605;48.822;8.796;2022-12-05T06:52:20;7.30;60.80
47845;DHT22;33605;48.822;8.796;2022-12-05T06:54:45;7.30;60.90
47845;DHT22;33605;48.822;8.796;2022-12-05T06:57:11;7.20;60.80
47845;DHT22;33605;48.822;8.796;2022-12-05T06:59:37;7.20;60.70
47845;DHT22;33605;48.822;8.796;2022-12-05T07:02:03;7.20;60.60
47845;DHT22;33605;48.822;8.796;2022-12-05T07:04:31;7.10;60.50
47845;DHT22;33605;48.822;8.796;2022-12-05T07:06:57;7.10;60.50
47845;DHT22;33605;48.822;8.796;2022-12-05T07:09:24;7.10;60.40
47845;DHT22;33605;48.822;8.796;2022-12-05T07:12:09;7.10;60.50
47845;DHT22;33605;48.822;8.796;2022-12-05T07:14:35;7.00;60.50
47845;DHT22;33605;48.822;8.796;2022-12-05T07:17:00;7.00;60.50
47845;DHT22;33605;48.822;8.796;2022-12-05T07:19:26;6.90;60.50
47845;DHT22;33605;48.822;8.796;2022-12-05T07:21:51;6.90;60.70
47845;DHT22;33605;48.822;8.796;2022-12-05T07:24:17;6.90;60.80
47845;DHT22;33605;48.822;8.796;2022-12-05T07:26:43;6.90;61.40
47845;DHT22;33605;48.822;8.796;2022-12-05T07:29:09;6.90;60.90
47845;DHT22;33605;48.822;8.796;2022-12-05T07:31:34;6.90;60.90
47845;DHT22;33605;48.822;8.796;2022-12-05T07:34:01;7.00;61.00
47845;DHT22;33605;48.822;8.796;2022-12-05T07:36:26;7.00;60.90
47845;DHT22;33605;48.822;8.796;2022-12-05T07:38:56;7.00;60.90
47845;DHT22;33605;48.822;8.796;2022-12-05T07:41:25;7.10;60.90
47845;DHT22;33605;48.822;8.796;2022-12-05T07:43:51;7.10;61.00
47845;DHT22;33605;48.822;8.796;2022-12-05T07:46:18;7.10;61.00
47845;DHT22;33605;48.822;8.796;2022-12-05T07:48:44;7.20;61.10
47845;DHT22;33605;48.822;8.796;2022-12-05T07:51:11;7.20;61.00
47845;DHT22;33605;48.822;8.796;2022-12-05T07:53:37;7.30;61.10
47845;DHT22;33605;48.822;8.796;2022-12-05T07:56:05;7.30;61.10
47845;DHT22;33605;48.822;8.796;2022-12-05T07:58:32;7.30;61.10
47845;DHT22;33605;48.822;8.796;2022-12-05T08:03:40;7.40;61.10
47845;DHT22;33605;48.822;8.796;2022-12-05T15:44:42;7.40;61.10
47845;DHT22;33605;48.822;8.796;2022-12-05T15:47:22;10.50;54.30
47845;DHT22;33605;48.822;8.796;2022-12-05T15:49:49;10.40;54.50
47845;DHT22;33605;48.822;8.796;2022-12-05T15:52:36;10.40;54.60
47845;DHT22;33605;48.822;8.796;2022-12-05T15:55:07;10.40;54.80
47845;DHT22;33605;48.822;8.796;2022-12-05T15:57:45;10.30;54.90
47845;DHT22;33605;48.822;8.796;2022-12-05T16:00:16;10.30;55.20
47845;DHT22;33605;48.822;8.796;2022-12-05T16:03:10;10.30;55.40
47845;DHT22;33605;48.822;8.796;2022-12-05T16:05:50;10.20;55.50
47845;DHT22;33605;48.822;8.796;2022-12-05T16:08:17;10.20;55.60
47845;DHT22;33605;48.822;8.796;2022-12-05T16:10:43;10.10;55.70
47845;DHT22;33605;48.822;8.796;2022-12-05T16:13:14;10.10;56.00
47845;DHT22;33605;48.822;8.796;2022-12-05T16:15:48;10.10;56.20
47845;DHT22;33605;48.822;8.796;2022-12-05T16:18:30;10.00;56.20
47845;DHT22;33605;48.822;8.796;2022-12-05T16:20:57;10.00;56.40
47845;DHT22;33605;48.822;8.796;2022-12-05T16:23:28;10.00;56.40
47845;DHT22;33605;48.822;8.796;2022-12-05T16:26:19;10.00;56.60
47845;DHT22;33605;48.822;8.796;2022-12-05T16:28:59;9.90;57.70
47845;DHT22;33605;48.822;8.796;2022-12-05T16:31:26;9.90;57.70
47845;DHT22;33605;48.822;8.796;2022-12-05T16:34:04;9.90;57.70
47845;DHT22;33605;48.822;8.796;2022-12-05T16:36:31;9.90;58.30
47845;DHT22;33605;48.822;8.796;2022-12-05T16:39:04;9.90;57.70
47845;DHT22;33605;48.822;8.796;2022-12-05T16:41:38;9.90;57.80
47845;DHT22;33605;48.822;8.796;2022-12-05T16:44:05;9.90;57.90
47845;DHT22;33605;48.822;8.796;2022-12-05T16:46:50;9.80;57.90
47845;DHT22;33605;48.822;8.796;2022-12-05T16:49:33;9.80;58.00
47845;DHT22;33605;48.822;8.796;2022-12-05T16:54:28;9.80;58.20
47845;DHT22;33605;48.822;8.796;2022-12-05T16:56:54;9.80;58.20
47845;DHT22;33605;48.822;8.796;2022-12-05T16:59:31;9.80;58.40
47845;DHT22;33605;48.822;8.796;2022-12-05T17:01:57;9.70;58.30
47845;DHT22;33605;48.822;8.796;2022-12-05T17:04:22;9.70;58.40
47845;DHT22;33605;48.822;8.796;2022-12-05T17:06:48;9.70;58.50
47845;DHT22;33605;48.822;8.796;2022-12-05T17:09:13;9.70;58.50
47845;DHT22;33605;48.822;8.796;2022-12-05T17:11:41;9.70;58.60
47845;DHT22;33605;48.822;8.796;2022-12-05T17:14:12;9.70;58.70
47845;DHT22;33605;48.822;8.796;2022-12-05T17:16:39;9.60;58.60
47845;DHT22;33605;48.822;8.796;2022-12-05T17:19:05;9.60;58.70
47845;DHT22;33605;48.822;8.796;2022-12-05T17:21:32;9.60;58.70
47845;DHT22;33605;48.822;8.796;2022-12-05T17:23:59;9.60;58.70
47845;DHT22;33605;48.822;8.796;2022-12-05T17:26:25;9.60;58.60
47845;DHT22;33605;48.822;8.796;2022-12-05T17:28:51;9.60;58.60
47845;DHT22;33605;48.822;8.796;2022-12-05T17:31:22;9.60;58.60
47845;DHT22;33605;48.822;8.796;2022-12-05T17:33:49;9.60;58.60
47845;DHT22;33605;48.822;8.796;2022-12-05T17:36:15;9.60;58.50
47845;DHT22;33605;48.822;8.796;2022-12-05T17:38:41;9.60;58.60
47845;DHT22;33605;48.822;8.796;2022-12-05T17:41:09;9.60;58.60
47845;DHT22;33605;48.822;8.796;2022-12-05T17:43:38;9.60;58.60
47845;DHT22;33605;48.822;8.796;2022-12-05T17:46:04;9.60;58.70
47845;DHT22;33605;48.822;8.796;2022-12-05T17:48:30;9.50;58.60
47845;DHT22;33605;48.822;8.796;2022-12-05T17:50:55;9.60;58.80
47845;DHT22;33605;48.822;8.796;2022-12-05T17:53:24;9.60;58.90
47845;DHT22;33605;48.822;8.796;2022-12-05T17:55:49;9.60;59.00
47845;DHT22;33605;48.822;8.796;2022-12-05T17:58:16;9.60;59.10
47845;DHT22;33605;48.822;8.796;2022-12-05T18:00:43;9.60;59.10
47845;DHT22;33605;48.822;8.796;2022-12-05T18:03:15;9.60;59.30
47845;DHT22;33605;48.822;8.796;2022-12-05T18:05:41;9.60;59.30
47845;DHT22;33605;48.822;8.796;2022-12-05T18:08:07;9.50;59.30
47845;DHT22;33605;48.822;8.796;2022-12-05T18:10:33;9.50;59.30
47845;DHT22;33605;48.822;8.796;2022-12-05T18:12:58;9.50;59.30
47845;DHT22;33605;48.822;8.796;2022-12-05T18:15:24;9.50;59.30
47845;DHT22;33605;48.822;8.796;2022-12-05T18:17:49;9.50;59.30
47845;DHT22;33605;48.822;8.796;2022-12-05T18:20:15;9.50;59.30
47845;DHT22;33605;48.822;8.796;2022-12-05T18:22:43;9.50;59.40
47845;DHT22;33605;48.822;8.796;2022-12-05T18:25:09;9.50;59.40
47845;DHT22;33605;48.822;8.796;2022-12-05T18:27:35;9.40;59.30
47845;DHT22;33605;48.822;8.796;2022-12-05T18:30:03;9.40;59.30
47845;DHT22;33605;48.822;8.796;2022-12-05T18:32:29;9.40;59.30
47845;DHT22;33605;48.822;8.796;2022-12-05T18:34:54;9.40;59.40
47845;DHT22;33605;48.822;8.796;2022-12-05T18:37:26;9.40;59.50
47845;DHT22;33605;48.822;8.796;2022-12-05T18:39:53;9.40;59.60
47845;DHT22;33605;48.822;8.796;2022-12-05T18:42:19;9.30;59.50
47845;DHT22;33605;48.822;8.796;2022-12-05T18:44:44;9.30;59.60
47845;DHT22;33605;48.822;8.796;2022-12-05T18:47:10;9.30;59.70
47845;DHT22;33605;48.822;8.796;2022-12-05T18:49:36;9.30;59.80
47845;DHT22;33605;48.822;8.796;2022-12-05T18:52:03;9.30;59.80
47845;DHT22;33605;48.822;8.796;2022-12-05T18:54:28;9.30;59.80
47845;DHT22;33605;48.822;8.796;2022-12-05T18:56:54;9.30;59.80
47845;DHT22;33605;48.822;8.796;2022-12-05T18:59:21;9.30;59.80
47845;DHT22;33605;48.822;8.796;2022-12-05T19:01:47;9.20;59.80
47845;DHT22;33605;48.822;8.796;2022-12-05T19:04:15;9.20;59.80
47845;DHT22;33605;48.822;8.796;2022-12-05T19:07:03;9.30;60.00
47845;DHT22;33605;48.822;8.796;2022-12-05T19:09:30;9.20;59.90
47845;DHT22;33605;48.822;8.796;2022-12-05T19:11:57;9.20;59.70
47845;DHT22;33605;48.822;8.796;2022-12-05T19:14:24;9.20;59.50
47845;DHT22;33605;48.822;8.796;2022-12-05T19:16:52;9.20;59.20
47845;DHT22;33605;48.822;8.796;2022-12-05T19:19:18;9.20;59.00
47845;DHT22;33605;48.822;8.796;2022-12-05T19:21:44;9.10;58.70
47845;DHT22;33605;48.822;8.796;2022-12-05T19:24:13;9.10;58.70
47845;DHT22;33605;48.822;8.796;2022-12-05T19:26:39;9.10;58.60
47845;DHT22;33605;48.822;8.796;2022-12-05T19:29:05;9.00;58.40
47845;DHT22;33605;48.822;8.796;2022-12-05T19:31:31;9.00;58.20
47845;DHT22;33605;48.822;8.796;2022-12-05T19:34:03;9.00;58.20
47845;DHT22;33605;48.822;8.796;2022-12-05T19:39:00;8.90;58.10
47845;DHT22;33605;48.822;8.796;2022-12-05T19:41:30;8.90;58.00
47845;DHT22;33605;48.822;8.796;2022-12-05T19:43:59;8.90;58.00
47845;DHT22;33605;48.822;8.796;2022-12-05T19:46:27;8.90;58.10
47845;DHT22;33605;48.822;8.796;2022-12-05T19:48:58;8.80;58.50
47845;DHT22;33605;48.822;8.796;2022-12-05T19:51:25;8.80;58.70
47845;DHT22;33605;48.822;8.796;2022-12-05T19:53:50;8.80;58.70
47845;DHT22;33605;48.822;8.796;2022-12-05T19:56:22;8.80;58.80
47845;DHT22;33605;48.822;8.796;2022-12-05T19:58:49;8.80;58.60
47845;DHT22;33605;48.822;8.796;2022-12-05T20:01:30;8.80;58.20
47845;DHT22;33605;48.822;8.796;2022-12-05T20:04:01;8.80;58.00
47845;DHT22;33605;48.822;8.796;2022-12-05T20:06:31;8.70;58.00
47845;DHT22;33605;48.822;8.796;2022-12-05T20:08:58;8.70;58.10
47845;DHT22;33605;48.822;8.796;2022-12-05T20:11:25;8.70;58.30
47845;DHT22;33605;48.822;8.796;2022-12-05T20:13:53;8.70;58.40
47845;DHT22;33605;48.822;8.796;2022-12-05T20:16:20;8.70;58.30
47845;DHT22;33605;48.822;8.796;2022-12-05T20:18:47;8.70;58.20
47845;DHT22;33605;48.822;8.796;2022-12-05T20:21:16;8.70;58.20
47845;DHT22;33605;48.822;8.796;2022-12-05T20:23:42;8.70;58.10
47845;DHT22;33605;48.822;8.796;2022-12-05T20:26:16;8.70;58.00
47845;DHT22;33605;48.822;8.796;2022-12-05T20:28:43;8.70;58.00
47845;DHT22;33605;48.822;8.796;2022-12-05T20:31:20;8.70;58.10
47845;DHT22;33605;48.822;8.796;2022-12-05T20:33:49;8.70;58.30
47845;DHT22;33605;48.822;8.796;2022-12-05T20:36:16;8.60;58.40
47845;DHT22;33605;48.822;8.796;2022-12-05T20:38:44;8.60;58.60
47845;DHT22;33605;48.822;8.796;2022-12-05T20:41:16;8.60;58.70
47845;DHT22;33605;48.822;8.796;2022-12-05T20:43:43;8.60;58.90
47845;DHT22;33605;48.822;8.796;2022-12-05T20:46:11;8.60;59.00
47845;DHT22;33605;48.822;8.796;2022-12-05T20:48:37;8.60;59.00
47845;DHT22;33605;48.822;8.796;2022-12-05T20:51:08;8.60;58.90
47845;DHT22;33605;48.822;8.796;2022-12-05T20:53:35;8.60;58.70
47845;DHT22;33605;48.822;8.796;2022-12-05T20:56:06;8.60;59.20
47845;DHT22;33605;48.822;8.796;2022-12-05T20:58:32;8.60;58.60
47845;DHT22;33605;48.822;8.796;2022-12-05T21:00:59;8.50;58.40
47845;DHT22;33605;48.822;8.796;2022-12-05T21:03:25;8.60;58.50
47845;DHT22;33605;48.822;8.796;2022-12-05T21:05:51;8.50;58.40
47845;DHT22;33605;48.822;8.796;2022-12-05T21:08:16;8.50;58.40
47845;DHT22;33605;48.822;8.796;2022-12-05T21:10:47;8.50;58.30
47845;DHT22;33605;48.822;8.796;2022-12-05T21:13:13;8.50;58.30
47845;DHT22;33605;48.822;8.796;2022-12-05T21:15:38;8.40;58.20
47845;DHT22;33605;48.822;8.796;2022-12-05T21:18:04;8.40;58.20
47845;DHT22;33605;48.822;8.796;2022-12-05T21:20:30;8.40;58.20
47845;DHT22;33605;48.822;8.796;2022-12-05T21:22:56;8.30;58.00
47845;DHT22;33605;48.822;8.796;2022-12-05T21:25:21;8.30;57.90
47845;DHT22;33605;48.822;8.796;2022-12-05T21:27:47;8.20;57.70
47845;DHT22;33605;48.822;8.796;2022-12-05T21:30:13;8.20;57.70
47845;DHT22;33605;48.822;8.796;2022-12-05T21:32:41;8.10;57.40
47845;DHT22;33605;48.822;8.796;2022-12-05T21:35:07;8.00;57.30
47845;DHT22;33605;48.822;8.796;2022-12-05T21:37:35;8.00;57.20
47845;DHT22;33605;48.822;8.796;2022-12-05T21:40:03;7.90;57.10
47845;DHT22;33605;48.822;8.796;2022-12-05T21:42:28;7.90;57.20
47845;DHT22;33605;48.822;8.796;2022-12-05T21:44:54;7.90;57.90
47845;DHT22;33605;48.822;8.796;2022-12-05T21:47:19;7.80;57.20
47845;DHT22;33605;48.822;8.796;2022-12-05T21:49:45;7.80;57.30
47845;DHT22;33605;48.822;8.796;2022-12-05T21:52:11;7.80;57.40
47845;DHT22;33605;48.822;8.796;2022-12-05T21:54:36;7.70;57.40
47845;DHT22;33605;48.822;8.796;2022-12-05T21:57:02;7.70;57.50
47845;DHT22;33605;48.822;8.796;2022-12-05T21:59:27;7.70;57.60
47845;DHT22;33605;48.822;8.796;2022-12-05T22:01:57;7.70;57.70
47845;DHT22;33605;48.822;8.796;2022-12-05T22:04:22;7.70;57.80
47845;DHT22;33605;48.822;8.796;2022-12-05T22:06:48;7.60;57.70
47845;DHT22;33605;48.822;8.796;2022-12-05T22:09:13;7.60;57.70
47845;DHT22;33605;48.822;8.796;2022-12-05T22:11:39;7.60;57.70
47845;DHT22;33605;48.822;8.796;2022-12-05T22:14:05;7.60;57.70
47845;DHT22;33605;48.822;8.796;2022-12-05T22:16:30;7.60;57.80
47845;DHT22;33605;48.822;8.796;2022-12-05T22:18:56;7.50;57.70
47845;DHT22;33605;48.822;8.796;2022-12-05T22:21:22;7.50;57.70
47845;DHT22;33605;48.822;8.796;2022-12-05T22:23:48;7.50;57.90
47845;DHT22;33605;48.822;8.796;2022-12-05T22:26:16;7.50;58.00
47845;DHT22;33605;48.822;8.796;2022-12-05T22:28:42;7.40;58.00
47845;DHT22;33605;48.822;8.796;2022-12-05T22:31:11;7.40;58.10
47845;DHT22;33605;48.822;8.796;2022-12-05T22:33:38;7.40;58.20
47845;DHT22;33605;48.822;8.796;2022-12-05T22:36:06;7.40;58.20
47845;DHT22;33605;48.822;8.796;2022-12-05T22:38:37;7.40;58.30
47845;DHT22;33605;48.822;8.796;2022-12-05T22:41:05;7.40;58.30
47845;DHT22;33605;48.822;8.796;2022-12-05T22:43:35;7.40;58.30
47845;DHT22;33605;48.822;8.796;2022-12-05T22:46:03;7.40;58.40
47845;DHT22;33605;48.822;8.796;2022-12-05T22:48:29;7.40;58.50
47845;DHT22;33605;48.822;8.796;2022-12-05T22:50:55;7.40;58.60
47845;DHT22;33605;48.822;8.796;2022-12-05T22:53:23;7.40;58.40
47845;DHT22;33605;48.822;8.796;2022-12-05T22:55:49;7.30;58.10
47845;DHT22;33605;48.822;8.796;2022-12-05T22:58:16;7.40;58.20
47845;DHT22;33605;48.822;8.796;2022-12-05T23:00:42;7.40;58.20
47845;DHT22;33605;48.822;8.796;2022-12-05T23:03:08;7.40;58.20
47845;DHT22;33605;48.822;8.796;2022-12-05T23:05:41;7.30;58.20
47845;DHT22;33605;48.822;8.796;2022-12-05T23:08:08;7.30;58.20
47845;DHT22;33605;48.822;8.796;2022-12-05T23:10:33;7.40;58.30
47845;DHT22;33605;48.822;8.796;2022-12-05T23:12:59;7.40;58.40
47845;DHT22;33605;48.822;8.796;2022-12-05T23:15:25;7.40;58.40
47845;DHT22;33605;48.822;8.796;2022-12-05T23:17:50;7.40;58.50
47845;DHT22;33605;48.822;8.796;2022-12-05T23:20:16;7.40;58.40
47845;DHT22;33605;48.822;8.796;2022-12-05T23:22:42;7.40;58.40
47845;DHT22;33605;48.822;8.796;2022-12-05T23:25:08;7.50;58.40
47845;DHT22;33605;48.822;8.796;2022-12-05T23:27:34;7.50;58.40
47845;DHT22;33605;48.822;8.796;2022-12-05T23:29:59;7.50;58.40
47845;DHT22;33605;48.822;8.796;2022-12-05T23:32:25;7.50;58.50
47845;DHT22;33605;48.822;8.796;2022-12-05T23:34:51;7.50;58.70
47845;DHT22;33605;48.822;8.796;2022-12-05T23:37:18;7.50;58.70
47845;DHT22;33605;48.822;8.796;2022-12-05T23:39:43;7.50;58.80
47845;DHT22;33605;48.822;8.796;2022-12-05T23:42:09;7.50;58.80
47845;DHT22;33605;48.822;8.796;2022-12-05T23:44:35;7.50;58.80
47845;DHT22;33605;48.822;8.796;2022-12-05T23:47:00;7.60;58.80
47845;DHT22;33605;48.822;8.796;2022-12-05T23:49:26;7.60;58.80
47845;DHT22;33605;48.822;8.796;2022-12-05T23:51:52;7.60;58.70
47845;DHT22;33605;48.822;8.796;2022-12-05T23:54:18;7.60;58.60
47845;DHT22;33605;48.822;8.796;2022-12-05T23:56:43;7.60;58.60
47845;DHT22;33605;48.822;8.796;2022-12-05T23:59:09;7.60;58.50
